Wetterdaten: Woche 06.08.07 - 12.08.07 (KW32)
Datum Zeit Temperatur Luftfeuchte Luftdruck Niederschlag Wind Richtung Sonnenschein Solar Taupunkt Windchill Windben
06.08.2007 00:00 17.1 C 86 % 1012.0 hPa 0.0 l/m 0.3 km/h (0 Bft) O 0.00 h 0 W/m 14.7 C 17.1 C 0.8 km/h (0 Bft)
06.08.2007 01:00 16.2 C 89 % 1012.0 hPa 0.0 l/m 0.1 km/h (0 Bft) O 0.00 h 0 W/m 14.3 C 16.2 C 0.2 km/h (0 Bft)
06.08.2007 02:00 15.4 C 91 % 1011.8 hPa 0.0 l/m 0.5 km/h (0 Bft) O 0.00 h 0 W/m 13.9 C 15.4 C 1.2 km/h (1 Bft)
06.08.2007 03:00 15.0 C 91 % 1011.6 hPa 0.0 l/m 0.1 km/h (0 Bft) O 0.00 h 0 W/m 13.5 C 15.0 C 0.7 km/h (0 Bft)
06.08.2007 04:00 14.3 C 93 % 1011.5 hPa 0.0 l/m 0.1 km/h (0 Bft) O 0.00 h 0 W/m 13.1 C 14.3 C 0.5 km/h (0 Bft)
06.08.2007 05:00 13.9 C 93 % 1011.5 hPa 0.0 l/m 0.5 km/h (0 Bft) O 0.00 h 0 W/m 12.8 C 13.9 C 1.1 km/h (0 Bft)
06.08.2007 06:00 13.7 C 94 % 1011.6 hPa 0.0 l/m 0.3 km/h (0 Bft) O 0.00 h 15 W/m 12.7 C 13.7 C 0.6 km/h (0 Bft)
06.08.2007 07:00 14.3 C 91 % 1012.0 hPa 0.0 l/m 0.0 km/h (0 Bft) N 0.35 h 83 W/m 12.9 C 14.3 C 0.1 km/h (0 Bft)
06.08.2007 08:00 16.8 C 82 % 1011.6 hPa 0.0 l/m 0.2 km/h (0 Bft) O 1.00 h 277 W/m 13.8 C 16.8 C 0.6 km/h (0 Bft)
06.08.2007 09:00 19.0 C 76 % 1011.4 hPa 0.0 l/m 0.8 km/h (0 Bft) W-SW 1.00 h 433 W/m 14.6 C 19.0 C 2.4 km/h (1 Bft)
06.08.2007 10:00 21.7 C 68 % 1010.9 hPa 0.0 l/m 2.6 km/h (1 Bft) W 1.00 h 578 W/m 15.6 C 21.7 C 4.6 km/h (1 Bft)
06.08.2007 11:00 24.6 C 64 % 1010.4 hPa 0.0 l/m 1.9 km/h (1 Bft) SO 1.00 h 696 W/m 17.4 C 24.6 C 4.0 km/h (1 Bft)
06.08.2007 12:00 26.6 C 60 % 1009.9 hPa 0.0 l/m 2.7 km/h (1 Bft) W 1.00 h 771 W/m 18.1 C 26.6 C 4.7 km/h (1 Bft)
06.08.2007 13:00 28.4 C 53 % 1009.2 hPa 0.0 l/m 2.5 km/h (1 Bft) W-NW 1.00 h 799 W/m 17.9 C 28.4 C 4.8 km/h (1 Bft)
06.08.2007 14:00 30.1 C 44 % 1008.9 hPa 0.0 l/m 6.5 km/h (2 Bft) W 1.00 h 776 W/m 16.4 C 30.1 C 10.6 km/h (2 Bft)
06.08.2007 15:00 30.8 C 42 % 1008.7 hPa 0.0 l/m 8.7 km/h (2 Bft) W 1.00 h 699 W/m 16.6 C 30.8 C 13.2 km/h (3 Bft)
06.08.2007 16:00 30.9 C 43 % 1008.5 hPa 0.0 l/m 8.9 km/h (2 Bft) W 1.00 h 587 W/m 16.9 C 30.9 C 13.9 km/h (3 Bft)
06.08.2007 17:00 30.0 C 47 % 1008.5 hPa 0.0 l/m 12.5 km/h (3 Bft) W 0.62 h 386 W/m 17.5 C 30.0 C 19.2 km/h (3 Bft)
06.08.2007 18:00 27.9 C 57 % 1009.2 hPa 0.0 l/m 11.5 km/h (2 Bft) W 0.78 h 267 W/m 18.6 C 27.9 C 17.7 km/h (3 Bft)
06.08.2007 19:00 26.4 C 63 % 1009.2 hPa 0.0 l/m 12.2 km/h (2 Bft) W 0.12 h 114 W/m 18.7 C 26.4 C 19.0 km/h (3 Bft)
06.08.2007 20:00 24.7 C 69 % 1009.7 hPa 0.0 l/m 11.0 km/h (2 Bft) W 0.00 h 22 W/m 18.7 C 24.7 C 17.4 km/h (3 Bft)
06.08.2007 21:00 23.6 C 74 % 1010.0 hPa 0.0 l/m 6.7 km/h (2 Bft) W 0.00 h 0 W/m 18.6 C 23.6 C 10.4 km/h (2 Bft)
06.08.2007 22:00 22.6 C 79 % 1010.3 hPa 0.0 l/m 1.3 km/h (1 Bft) W-NW 0.00 h 0 W/m 18.7 C 22.6 C 3.0 km/h (1 Bft)
06.08.2007 23:00 21.6 C 82 % 1010.6 hPa 0.0 l/m 2.3 km/h (1 Bft) O-SO 0.00 h 0 W/m 18.4 C 21.6 C 3.3 km/h (1 Bft)
07.08.2007 00:00 20.5 C 85 % 1010.9 hPa 0.0 l/m 0.6 km/h (0 Bft) SO 0.00 h 0 W/m 17.9 C 20.5 C 1.5 km/h (1 Bft)
07.08.2007 01:00 20.3 C 85 % 1010.3 hPa 0.0 l/m 0.7 km/h (0 Bft) NW 0.00 h 0 W/m 17.6 C 20.3 C 2.0 km/h (1 Bft)
07.08.2007 02:00 19.6 C 87 % 1009.9 hPa 0.0 l/m 0.1 km/h (0 Bft) N-NW 0.00 h 0 W/m 17.4 C 19.6 C 0.5 km/h (0 Bft)
07.08.2007 03:00 19.0 C 91 % 1009.8 hPa 0.0 l/m 0.4 km/h (0 Bft) O 0.00 h 0 W/m 17.5 C 19.0 C 1.0 km/h (0 Bft)
07.08.2007 04:00 19.0 C 90 % 1009.9 hPa 0.0 l/m 0.5 km/h (0 Bft) O 0.00 h 0 W/m 17.4 C 19.0 C 1.2 km/h (1 Bft)
07.08.2007 05:00 18.4 C 92 % 1009.9 hPa 0.0 l/m 0.3 km/h (0 Bft) N-NO 0.00 h 0 W/m 17.1 C 18.4 C 0.6 km/h (0 Bft)
07.08.2007 06:00 18.5 C 91 % 1010.3 hPa 0.0 l/m 0.4 km/h (0 Bft) NW 0.42 h 34 W/m 17.1 C 18.5 C 1.4 km/h (1 Bft)
07.08.2007 07:00 19.6 C 86 % 1010.3 hPa 0.0 l/m 0.7 km/h (0 Bft) N 0.33 h 75 W/m 17.1 C 19.6 C 1.7 km/h (1 Bft)
07.08.2007 08:00 19.0 C 90 % 1011.1 hPa 1.6 l/m 1.5 km/h (1 Bft) W 0.00 h 18 W/m 17.3 C 19.0 C 3.0 km/h (1 Bft)
07.08.2007 09:00 18.5 C 97 % 1011.4 hPa 4.8 l/m 0.2 km/h (0 Bft) S-SO 0.00 h 51 W/m 17.9 C 18.5 C 0.5 km/h (0 Bft)
07.08.2007 10:00 18.4 C 98 % 1011.7 hPa 0.4 l/m 0.1 km/h (0 Bft) S-SO 0.00 h 145 W/m 18.0 C 18.4 C 0.6 km/h (0 Bft)
07.08.2007 11:00 18.4 C 94 % 1012.1 hPa 0.2 l/m 0.8 km/h (0 Bft) S-SO 0.00 h 144 W/m 17.4 C 18.4 C 2.6 km/h (1 Bft)
07.08.2007 12:00 18.5 C 95 % 1012.2 hPa 0.0 l/m 2.0 km/h (1 Bft) W 0.00 h 86 W/m 17.6 C 18.5 C 4.1 km/h (1 Bft)
07.08.2007 13:00 18.1 C 97 % 1012.3 hPa 0.0 l/m 4.2 km/h (1 Bft) W 0.00 h 136 W/m 17.6 C 18.1 C 7.1 km/h (2 Bft)
07.08.2007 14:00 19.1 C 93 % 1012.2 hPa 0.0 l/m 3.6 km/h (1 Bft) W 0.05 h 280 W/m 18.0 C 19.1 C 6.4 km/h (2 Bft)
07.08.2007 15:00 20.5 C 87 % 1011.9 hPa 0.0 l/m 3.3 km/h (1 Bft) W-SW 0.03 h 312 W/m 18.3 C 20.5 C 6.5 km/h (2 Bft)
07.08.2007 16:00 20.4 C 85 % 1011.6 hPa 0.0 l/m 3.5 km/h (1 Bft) W 0.00 h 184 W/m 17.7 C 20.4 C 6.7 km/h (2 Bft)
07.08.2007 17:00 20.3 C 82 % 1011.6 hPa 0.0 l/m 2.8 km/h (1 Bft) W 0.00 h 132 W/m 17.1 C 20.3 C 6.1 km/h (2 Bft)
07.08.2007 18:00 20.1 C 83 % 1011.5 hPa 0.0 l/m 2.6 km/h (1 Bft) W 0.00 h 79 W/m 17.0 C 20.1 C 5.4 km/h (1 Bft)
07.08.2007 19:00 19.7 C 84 % 1011.6 hPa 0.0 l/m 0.6 km/h (0 Bft) W 0.00 h 41 W/m 16.9 C 19.7 C 1.8 km/h (1 Bft)
07.08.2007 20:00 18.9 C 88 % 1011.8 hPa 0.0 l/m 0.3 km/h (0 Bft) W-SW 0.00 h 9 W/m 16.8 C 18.9 C 0.8 km/h (0 Bft)
07.08.2007 21:00 18.1 C 93 % 1012.2 hPa 0.0 l/m 1.0 km/h (0 Bft) W-NW 0.00 h 0 W/m 16.9 C 18.1 C 2.5 km/h (1 Bft)
07.08.2007 22:00 17.6 C 94 % 1012.2 hPa 0.0 l/m 2.4 km/h (1 Bft) W 0.00 h 0 W/m 16.5 C 17.6 C 4.3 km/h (1 Bft)
07.08.2007 23:00 16.9 C 94 % 1012.0 hPa 0.2 l/m 2.9 km/h (1 Bft) W-NW 0.00 h 0 W/m 15.9 C 16.9 C 4.8 km/h (1 Bft)
08.08.2007 00:00 16.7 C 95 % 1012.1 hPa 0.0 l/m 2.7 km/h (1 Bft) W-NW 0.00 h 0 W/m 15.9 C 16.7 C 4.7 km/h (1 Bft)
08.08.2007 01:00 16.4 C 95 % 1011.6 hPa 0.0 l/m 1.0 km/h (0 Bft) W 0.00 h 0 W/m 15.6 C 16.4 C 2.2 km/h (1 Bft)
08.08.2007 02:00 16.4 C 94 % 1011.2 hPa 0.0 l/m 3.0 km/h (1 Bft) W 0.00 h 0 W/m 15.5 C 16.4 C 5.4 km/h (1 Bft)
08.08.2007 03:00 15.6 C 95 % 1011.2 hPa 1.0 l/m 11.7 km/h (2 Bft) W 0.00 h 0 W/m 14.8 C 15.6 C 18.1 km/h (3 Bft)
08.08.2007 04:00 13.9 C 96 % 1011.8 hPa 2.4 l/m 10.7 km/h (2 Bft) W-NW 0.00 h 0 W/m 13.3 C 13.9 C 17.6 km/h (3 Bft)
08.08.2007 05:00 13.5 C 97 % 1012.2 hPa 2.8 l/m 4.6 km/h (1 Bft) W-NW 0.00 h 0 W/m 13.0 C 13.5 C 8.8 km/h (2 Bft)
08.08.2007 06:00 13.4 C 97 % 1012.5 hPa 1.4 l/m 5.7 km/h (1 Bft) N-NW 0.00 h 5 W/m 13.0 C 13.4 C 9.7 km/h (2 Bft)
08.08.2007 07:00 13.5 C 98 % 1012.7 hPa 0.2 l/m 3.1 km/h (1 Bft) W-NW 0.00 h 11 W/m 13.1 C 13.5 C 5.9 km/h (2 Bft)
08.08.2007 08:00 13.5 C 97 % 1013.2 hPa 0.0 l/m 4.8 km/h (1 Bft) W-NW 0.00 h 39 W/m 13.1 C 13.5 C 8.2 km/h (2 Bft)
08.08.2007 09:00 13.6 C 97 % 1013.3 hPa 0.0 l/m 7.6 km/h (2 Bft) W 0.00 h 101 W/m 13.2 C 13.6 C 11.7 km/h (2 Bft)
08.08.2007 10:00 14.1 C 94 % 1013.2 hPa 0.2 l/m 7.6 km/h (2 Bft) W 0.00 h 133 W/m 13.2 C 14.1 C 11.9 km/h (2 Bft)
08.08.2007 11:00 14.1 C 93 % 1013.4 hPa 0.0 l/m 5.5 km/h (1 Bft) W 0.00 h 101 W/m 13.0 C 14.1 C 8.8 km/h (2 Bft)
08.08.2007 12:00 14.9 C 90 % 1013.0 hPa 0.0 l/m 6.3 km/h (2 Bft) W-NW 0.00 h 265 W/m 13.3 C 14.9 C 10.0 km/h (2 Bft)
08.08.2007 13:00 16.1 C 87 % 1012.3 hPa 0.0 l/m 4.0 km/h (1 Bft) W 0.00 h 226 W/m 13.9 C 16.1 C 6.8 km/h (2 Bft)
08.08.2007 14:00 15.5 C 89 % 1012.3 hPa 0.0 l/m 2.2 km/h (1 Bft) W 0.00 h 93 W/m 13.7 C 15.5 C 4.3 km/h (1 Bft)
08.08.2007 15:00 15.1 C 95 % 1012.0 hPa 0.6 l/m 0.1 km/h (0 Bft) NW 0.00 h 87 W/m 14.3 C 15.1 C 0.7 km/h (0 Bft)
08.08.2007 16:00 15.3 C 96 % 1011.5 hPa 0.6 l/m 0.0 km/h (0 Bft) NW 0.00 h 38 W/m 14.7 C 15.3 C 0.3 km/h (0 Bft)
08.08.2007 17:00 15.3 C 98 % 1011.4 hPa 2.0 l/m 0.1 km/h (0 Bft) NW 0.00 h 20 W/m 15.0 C 15.3 C 0.7 km/h (0 Bft)
08.08.2007 18:00 14.9 C 99 % 1010.5 hPa 1.6 l/m 2.4 km/h (1 Bft) W 0.00 h 10 W/m 14.8 C 14.9 C 4.3 km/h (1 Bft)
08.08.2007 19:00 14.4 C 99 % 1010.6 hPa 10.6 l/m 0.9 km/h (0 Bft) W-NW 0.00 h 6 W/m 14.3 C 14.4 C 2.2 km/h (1 Bft)
08.08.2007 20:00 14.3 C 99 % 1011.6 hPa 12.0 l/m 0.2 km/h (0 Bft) S-SW 0.00 h 0 W/m 14.1 C 14.3 C 1.1 km/h (1 Bft)
08.08.2007 21:00 14.2 C 99 % 1012.0 hPa 11.6 l/m 0.9 km/h (0 Bft) S-SO 0.00 h 0 W/m 14.0 C 14.2 C 2.5 km/h (1 Bft)
08.08.2007 22:00 14.2 C 99 % 1011.9 hPa 4.2 l/m 0.1 km/h (0 Bft) SW 0.00 h 0 W/m 14.1 C 14.2 C 0.5 km/h (0 Bft)
08.08.2007 23:00 13.6 C 99 % 1011.9 hPa 1.6 l/m 3.5 km/h (1 Bft) S-SO 0.00 h 0 W/m 13.4 C 13.6 C 7.1 km/h (2 Bft)
09.08.2007 00:00 12.0 C 97 % 1012.0 hPa 1.0 l/m 7.5 km/h (2 Bft) SO 0.00 h 0 W/m 11.6 C 12.0 C 13.0 km/h (3 Bft)
09.08.2007 01:00 11.5 C 96 % 1012.1 hPa 1.0 l/m 5.9 km/h (2 Bft) S-SO 0.00 h 0 W/m 10.8 C 11.5 C 10.6 km/h (2 Bft)
09.08.2007 02:00 11.2 C 96 % 1012.0 hPa 2.2 l/m 6.6 km/h (2 Bft) S-SO 0.00 h 0 W/m 10.6 C 11.2 C 11.7 km/h (2 Bft)
09.08.2007 03:00 11.1 C 97 % 1011.7 hPa 1.4 l/m 4.5 km/h (1 Bft) S 0.00 h 0 W/m 10.6 C 11.1 C 9.8 km/h (2 Bft)
09.08.2007 04:00 11.0 C 97 % 1011.4 hPa 3.6 l/m 3.4 km/h (1 Bft) S-SO 0.00 h 0 W/m 10.5 C 11.0 C 7.4 km/h (2 Bft)
09.08.2007 05:00 11.0 C 98 % 1011.1 hPa 4.0 l/m 3.4 km/h (1 Bft) SO 0.00 h 0 W/m 10.6 C 11.0 C 6.1 km/h (2 Bft)
09.08.2007 06:00 11.1 C 98 % 1011.5 hPa 5.6 l/m 4.9 km/h (1 Bft) S-SO 0.00 h 0 W/m 10.8 C 11.1 C 8.7 km/h (2 Bft)
09.08.2007 07:00 11.0 C 98 % 1011.7 hPa 3.2 l/m 4.8 km/h (1 Bft) S-SO 0.00 h 11 W/m 10.7 C 11.0 C 9.6 km/h (2 Bft)
09.08.2007 08:00 11.2 C 98 % 1011.5 hPa 1.6 l/m 3.4 km/h (1 Bft) S-SO 0.00 h 44 W/m 10.9 C 11.2 C 7.0 km/h (2 Bft)
09.08.2007 09:00 11.7 C 97 % 1011.5 hPa 0.0 l/m 5.5 km/h (1 Bft) S 0.00 h 55 W/m 11.3 C 11.7 C 10.2 km/h (2 Bft)
09.08.2007 10:00 12.3 C 98 % 1011.8 hPa 0.0 l/m 4.4 km/h (1 Bft) W-SW 0.00 h 41 W/m 12.0 C 12.3 C 8.4 km/h (2 Bft)
09.08.2007 11:00 12.4 C 98 % 1012.5 hPa 0.0 l/m 2.3 km/h (1 Bft) W-SW 0.00 h 38 W/m 12.1 C 12.4 C 5.1 km/h (1 Bft)
09.08.2007 12:00 12.4 C 97 % 1012.9 hPa 0.0 l/m 6.8 km/h (2 Bft) W-SW 0.00 h 106 W/m 12.0 C 12.4 C 11.4 km/h (2 Bft)
09.08.2007 13:00 12.6 C 95 % 1013.2 hPa 0.0 l/m 4.8 km/h (1 Bft) W-SW 0.00 h 86 W/m 11.9 C 12.6 C 8.6 km/h (2 Bft)
09.08.2007 14:00 12.6 C 96 % 1013.4 hPa 0.0 l/m 4.4 km/h (1 Bft) W 0.00 h 76 W/m 12.0 C 12.6 C 8.1 km/h (2 Bft)
09.08.2007 15:00 13.1 C 94 % 1013.5 hPa 0.0 l/m 3.0 km/h (1 Bft) W-SW 0.00 h 136 W/m 12.1 C 13.1 C 6.5 km/h (2 Bft)
09.08.2007 16:00 13.0 C 92 % 1013.7 hPa 0.0 l/m 2.7 km/h (1 Bft) SW 0.00 h 83 W/m 11.8 C 13.0 C 6.1 km/h (2 Bft)
09.08.2007 17:00 12.8 C 91 % 1014.1 hPa 0.0 l/m 2.0 km/h (1 Bft) S-SO 0.00 h 75 W/m 11.4 C 12.8 C 5.1 km/h (1 Bft)
09.08.2007 18:00 12.6 C 88 % 1014.2 hPa 0.0 l/m 3.9 km/h (1 Bft) S-SO 0.00 h 33 W/m 10.7 C 12.6 C 8.0 km/h (2 Bft)
09.08.2007 19:00 12.3 C 88 % 1014.5 hPa 0.0 l/m 4.3 km/h (1 Bft) S-SW 0.00 h 21 W/m 10.4 C 12.3 C 9.2 km/h (2 Bft)
09.08.2007 20:00 12.1 C 88 % 1014.5 hPa 0.0 l/m 3.2 km/h (1 Bft) S-SO 0.00 h 9 W/m 10.3 C 12.1 C 7.0 km/h (2 Bft)
09.08.2007 21:00 12.0 C 89 % 1014.8 hPa 0.0 l/m 3.0 km/h (1 Bft) S-SO 0.00 h 0 W/m 10.2 C 12.0 C 6.7 km/h (2 Bft)
09.08.2007 22:00 11.9 C 89 % 1014.9 hPa 0.0 l/m 2.0 km/h (1 Bft) S-SO 0.00 h 0 W/m 10.2 C 11.9 C 5.5 km/h (1 Bft)
09.08.2007 23:00 11.9 C 88 % 1014.6 hPa 0.0 l/m 2.5 km/h (1 Bft) S-SO 0.00 h 0 W/m 10.0 C 11.9 C 5.7 km/h (1 Bft)
10.08.2007 00:00 11.8 C 88 % 1014.8 hPa 0.0 l/m 2.5 km/h (1 Bft) S-SO 0.00 h 0 W/m 9.9 C 11.8 C 5.9 km/h (2 Bft)
10.08.2007 01:00 11.8 C 89 % 1014.7 hPa 0.0 l/m 1.7 km/h (1 Bft) S 0.00 h 0 W/m 10.0 C 11.8 C 4.3 km/h (1 Bft)
10.08.2007 02:00 11.8 C 89 % 1014.4 hPa 0.0 l/m 2.3 km/h (1 Bft) S 0.00 h 0 W/m 10.1 C 11.8 C 5.5 km/h (1 Bft)
10.08.2007 03:00 11.8 C 89 % 1013.9 hPa 0.0 l/m 1.3 km/h (1 Bft) S 0.00 h 0 W/m 10.0 C 11.8 C 3.8 km/h (1 Bft)
10.08.2007 04:00 11.7 C 89 % 1013.7 hPa 0.0 l/m 1.9 km/h (1 Bft) S 0.00 h 0 W/m 10.0 C 11.7 C 4.6 km/h (1 Bft)
10.08.2007 05:00 11.6 C 90 % 1013.3 hPa 0.0 l/m 1.1 km/h (0 Bft) S-SO 0.00 h 0 W/m 10.0 C 11.6 C 3.4 km/h (1 Bft)
10.08.2007 06:00 11.6 C 90 % 1013.7 hPa 0.0 l/m 1.3 km/h (1 Bft) S-SO 0.00 h 14 W/m 10.0 C 11.6 C 3.5 km/h (1 Bft)
10.08.2007 07:00 12.2 C 90 % 1013.8 hPa 0.0 l/m 0.4 km/h (0 Bft) W-SW 0.07 h 83 W/m 10.5 C 12.2 C 2.1 km/h (1 Bft)
10.08.2007 08:00 12.9 C 88 % 1013.4 hPa 0.0 l/m 0.3 km/h (0 Bft) W-SW 0.00 h 90 W/m 11.0 C 12.9 C 1.4 km/h (1 Bft)
10.08.2007 09:00 13.5 C 85 % 1014.1 hPa 0.0 l/m 1.6 km/h (1 Bft) S-SO 0.00 h 155 W/m 11.0 C 13.5 C 4.2 km/h (1 Bft)
10.08.2007 10:00 14.3 C 83 % 1013.9 hPa 0.0 l/m 2.0 km/h (1 Bft) S-SO 0.00 h 253 W/m 11.5 C 14.3 C 4.7 km/h (1 Bft)
10.08.2007 11:00 15.3 C 80 % 1014.0 hPa 0.0 l/m 2.2 km/h (1 Bft) S-SO 0.00 h 279 W/m 11.9 C 15.3 C 5.2 km/h (1 Bft)
10.08.2007 12:00 15.1 C 83 % 1014.1 hPa 0.2 l/m 2.3 km/h (1 Bft) S-SO 0.00 h 224 W/m 12.2 C 15.1 C 5.0 km/h (1 Bft)
10.08.2007 13:00 15.0 C 90 % 1014.1 hPa 0.6 l/m 0.9 km/h (0 Bft) S-SW 0.00 h 217 W/m 13.3 C 15.0 C 2.9 km/h (1 Bft)
10.08.2007 14:00 15.5 C 93 % 1013.8 hPa 0.2 l/m 1.6 km/h (1 Bft) W-SW 0.00 h 343 W/m 14.3 C 15.5 C 3.6 km/h (1 Bft)
10.08.2007 15:00 16.7 C 87 % 1013.7 hPa 0.0 l/m 2.2 km/h (1 Bft) W 0.33 h 430 W/m 14.6 C 16.7 C 4.3 km/h (1 Bft)
10.08.2007 16:00 17.3 C 82 % 1013.5 hPa 0.0 l/m 4.1 km/h (1 Bft) W-NW 0.30 h 364 W/m 14.2 C 17.3 C 6.7 km/h (2 Bft)
10.08.2007 17:00 17.1 C 80 % 1013.5 hPa 0.0 l/m 6.7 km/h (2 Bft) W 0.07 h 203 W/m 13.7 C 17.1 C 9.8 km/h (2 Bft)
10.08.2007 18:00 16.3 C 82 % 1013.6 hPa 0.0 l/m 6.1 km/h (2 Bft) W 0.00 h 73 W/m 13.3 C 16.3 C 9.7 km/h (2 Bft)
10.08.2007 19:00 15.9 C 85 % 1013.8 hPa 0.0 l/m 4.5 km/h (1 Bft) W 0.00 h 27 W/m 13.4 C 15.9 C 7.1 km/h (2 Bft)
10.08.2007 20:00 15.3 C 88 % 1014.3 hPa 0.0 l/m 4.2 km/h (1 Bft) W 0.00 h 10 W/m 13.2 C 15.3 C 6.8 km/h (2 Bft)
10.08.2007 21:00 14.9 C 90 % 1015.0 hPa 0.0 l/m 2.5 km/h (1 Bft) W-SW 0.00 h 0 W/m 13.2 C 14.9 C 4.9 km/h (1 Bft)
10.08.2007 22:00 14.6 C 93 % 1015.0 hPa 0.0 l/m 3.4 km/h (1 Bft) W 0.00 h 0 W/m 13.4 C 14.6 C 5.8 km/h (2 Bft)
10.08.2007 23:00 14.6 C 93 % 1014.9 hPa 0.0 l/m 3.7 km/h (1 Bft) W 0.00 h 0 W/m 13.5 C 14.6 C 6.5 km/h (2 Bft)
11.08.2007 00:00 14.5 C 95 % 1014.6 hPa 1.2 l/m 3.4 km/h (1 Bft) W 0.00 h 0 W/m 13.6 C 14.5 C 6.2 km/h (2 Bft)
11.08.2007 01:00 14.2 C 98 % 1014.6 hPa 3.0 l/m 0.6 km/h (0 Bft) SO 0.00 h 0 W/m 13.9 C 14.2 C 1.6 km/h (1 Bft)
11.08.2007 02:00 14.2 C 99 % 1014.1 hPa 1.0 l/m 0.4 km/h (0 Bft) SO 0.00 h 0 W/m 14.0 C 14.2 C 1.5 km/h (1 Bft)
11.08.2007 03:00 14.2 C 99 % 1013.7 hPa 1.0 l/m 0.3 km/h (0 Bft) S-SO 0.00 h 0 W/m 14.1 C 14.2 C 1.4 km/h (1 Bft)
11.08.2007 04:00 14.3 C 99 % 1013.6 hPa 0.0 l/m 0.6 km/h (0 Bft) S-SO 0.00 h 0 W/m 14.1 C 14.3 C 2.1 km/h (1 Bft)
11.08.2007 05:00 14.3 C 99 % 1013.3 hPa 0.2 l/m 0.1 km/h (0 Bft) S 0.00 h 0 W/m 14.1 C 14.3 C 0.7 km/h (0 Bft)
11.08.2007 06:00 14.4 C 99 % 1013.4 hPa 0.0 l/m 0.4 km/h (0 Bft) S-SO 0.00 h 5 W/m 14.2 C 14.4 C 1.8 km/h (1 Bft)
11.08.2007 07:00 14.6 C 99 % 1013.7 hPa 0.0 l/m 0.2 km/h (0 Bft) S-SO 0.00 h 16 W/m 14.4 C 14.6 C 1.3 km/h (1 Bft)
11.08.2007 08:00 14.8 C 99 % 1013.9 hPa 0.0 l/m 0.5 km/h (0 Bft) S-SO 0.00 h 37 W/m 14.7 C 14.8 C 1.6 km/h (1 Bft)
11.08.2007 09:00 15.1 C 99 % 1013.9 hPa 0.0 l/m 0.6 km/h (0 Bft) S-SO 0.00 h 65 W/m 15.0 C 15.1 C 2.0 km/h (1 Bft)
11.08.2007 10:00 15.4 C 99 % 1014.1 hPa 0.0 l/m 0.3 km/h (0 Bft) W-SW 0.00 h 70 W/m 15.2 C 15.4 C 1.4 km/h (1 Bft)
11.08.2007 11:00 15.7 C 97 % 1014.2 hPa 0.0 l/m 0.3 km/h (0 Bft) S-SO 0.00 h 77 W/m 15.2 C 15.7 C 1.7 km/h (1 Bft)
11.08.2007 12:00 16.1 C 95 % 1014.0 hPa 0.0 l/m 0.5 km/h (0 Bft) S 0.00 h 159 W/m 15.4 C 16.1 C 2.1 km/h (1 Bft)
11.08.2007 13:00 17.2 C 91 % 1013.8 hPa 0.0 l/m 0.6 km/h (0 Bft) O-SO 0.00 h 279 W/m 15.7 C 17.2 C 1.9 km/h (1 Bft)
11.08.2007 14:00 18.5 C 88 % 1013.2 hPa 0.0 l/m 1.5 km/h (1 Bft) W-NW 0.38 h 457 W/m 16.5 C 18.5 C 3.1 km/h (1 Bft)
11.08.2007 15:00 20.6 C 81 % 1012.9 hPa 0.0 l/m 2.7 km/h (1 Bft) W 0.93 h 747 W/m 17.2 C 20.6 C 4.5 km/h (1 Bft)
11.08.2007 16:00 21.9 C 75 % 1012.4 hPa 0.0 l/m 4.1 km/h (1 Bft) W-NW 0.97 h 595 W/m 17.3 C 21.9 C 6.1 km/h (2 Bft)
11.08.2007 17:00 22.3 C 72 % 1011.9 hPa 0.0 l/m 3.5 km/h (1 Bft) W-NW 0.95 h 468 W/m 16.9 C 22.3 C 5.6 km/h (1 Bft)
11.08.2007 18:00 22.5 C 72 % 1011.5 hPa 0.0 l/m 3.9 km/h (1 Bft) W 1.00 h 354 W/m 17.1 C 22.5 C 6.5 km/h (2 Bft)
11.08.2007 19:00 21.2 C 77 % 1011.5 hPa 0.0 l/m 2.3 km/h (1 Bft) W-NW 0.25 h 117 W/m 17.0 C 21.2 C 4.1 km/h (1 Bft)
11.08.2007 20:00 19.4 C 84 % 1011.9 hPa 0.0 l/m 0.9 km/h (0 Bft) NW 0.02 h 19 W/m 16.5 C 19.4 C 2.2 km/h (1 Bft)
11.08.2007 21:00 17.5 C 92 % 1012.3 hPa 0.0 l/m 0.7 km/h (0 Bft) N-NO 0.00 h 0 W/m 16.2 C 17.5 C 1.7 km/h (1 Bft)
11.08.2007 22:00 16.4 C 96 % 1012.6 hPa 0.0 l/m 0.8 km/h (0 Bft) O-SO 0.00 h 0 W/m 15.7 C 16.4 C 1.9 km/h (1 Bft)
11.08.2007 23:00 15.6 C 97 % 1012.8 hPa 0.0 l/m 0.3 km/h (0 Bft) O-SO 0.00 h 0 W/m 15.2 C 15.6 C 0.9 km/h (0 Bft)
12.08.2007 00:00 15.2 C 99 % 1012.9 hPa 0.0 l/m 0.4 km/h (0 Bft) O-SO 0.00 h 0 W/m 15.0 C 15.2 C 1.1 km/h (1 Bft)
12.08.2007 01:00 15.3 C 100 % 1012.6 hPa 0.0 l/m 0.1 km/h (0 Bft) O-NO 0.00 h 0 W/m 15.3 C 15.3 C 0.5 km/h (0 Bft)
12.08.2007 02:00 15.4 C 100 % 1012.1 hPa 0.0 l/m 0.4 km/h (0 Bft) N 0.00 h 0 W/m 15.4 C 15.4 C 1.6 km/h (1 Bft)
12.08.2007 03:00 15.1 C 100 % 1011.8 hPa 0.0 l/m 0.7 km/h (0 Bft) N-NW 0.00 h 0 W/m 15.1 C 15.1 C 1.8 km/h (1 Bft)
12.08.2007 04:00 14.8 C 100 % 1011.5 hPa 0.0 l/m 1.1 km/h (0 Bft) NW 0.00 h 0 W/m 14.8 C 14.8 C 2.4 km/h (1 Bft)
12.08.2007 05:00 14.4 C 100 % 1011.3 hPa 0.0 l/m 1.1 km/h (0 Bft) NW 0.00 h 0 W/m 14.4 C 14.4 C 2.4 km/h (1 Bft)
12.08.2007 06:00 14.2 C 100 % 1011.3 hPa 0.0 l/m 0.3 km/h (0 Bft) NW 0.00 h 11 W/m 14.2 C 14.2 C 1.0 km/h (0 Bft)
12.08.2007 07:00 14.5 C 100 % 1011.4 hPa 0.0 l/m 0.3 km/h (0 Bft) NW 0.00 h 30 W/m 14.5 C 14.5 C 1.2 km/h (1 Bft)
12.08.2007 08:00 15.0 C 100 % 1011.7 hPa 0.0 l/m 0.1 km/h (0 Bft) NW 0.00 h 70 W/m 15.0 C 15.0 C 0.6 km/h (0 Bft)
12.08.2007 09:00 15.6 C 96 % 1012.1 hPa 0.0 l/m 0.3 km/h (0 Bft) O 0.00 h 100 W/m 15.0 C 15.6 C 1.2 km/h (1 Bft)
12.08.2007 10:00 16.6 C 91 % 1012.2 hPa 0.0 l/m 0.9 km/h (0 Bft) N-NO 0.00 h 188 W/m 15.0 C 16.6 C 2.5 km/h (1 Bft)
12.08.2007 11:00 17.5 C 88 % 1012.2 hPa 0.0 l/m 1.5 km/h (1 Bft) NW 0.00 h 240 W/m 15.5 C 17.5 C 3.3 km/h (1 Bft)
12.08.2007 12:00 18.6 C 84 % 1011.8 hPa 0.0 l/m 1.5 km/h (1 Bft) W 0.15 h 386 W/m 15.9 C 18.6 C 3.3 km/h (1 Bft)
12.08.2007 13:00 20.7 C 78 % 1011.0 hPa 0.0 l/m 2.0 km/h (1 Bft) W-NW 0.95 h 767 W/m 16.8 C 20.7 C 4.1 km/h (1 Bft)
12.08.2007 14:00 22.6 C 73 % 1010.3 hPa 0.0 l/m 2.4 km/h (1 Bft) W-NW 1.00 h 757 W/m 17.6 C 22.6 C 4.5 km/h (1 Bft)
12.08.2007 15:00 23.8 C 66 % 1009.9 hPa 0.0 l/m 2.9 km/h (1 Bft) W-NW 1.00 h 693 W/m 17.1 C 23.8 C 4.9 km/h (1 Bft)
12.08.2007 16:00 24.6 C 56 % 1009.2 hPa 0.0 l/m 1.9 km/h (1 Bft) O-SO 1.00 h 589 W/m 15.1 C 24.6 C 4.0 km/h (1 Bft)
12.08.2007 17:00 25.3 C 55 % 1008.9 hPa 0.0 l/m 2.9 km/h (1 Bft) W-NW 1.00 h 441 W/m 15.6 C 25.3 C 5.0 km/h (1 Bft)
12.08.2007 18:00 24.7 C 61 % 1008.7 hPa 0.0 l/m 1.5 km/h (1 Bft) W 0.65 h 222 W/m 16.6 C 24.7 C 3.0 km/h (1 Bft)
12.08.2007 19:00 22.7 C 71 % 1008.8 hPa 0.0 l/m 0.9 km/h (0 Bft) O-SO 0.02 h 55 W/m 17.2 C 22.7 C 1.7 km/h (1 Bft)
12.08.2007 20:00 21.1 C 81 % 1009.1 hPa 0.0 l/m 4.1 km/h (1 Bft) O-SO 0.08 h 24 W/m 17.6 C 21.1 C 5.5 km/h (1 Bft)
12.08.2007 21:00 19.6 C 86 % 1009.8 hPa 0.0 l/m 2.8 km/h (1 Bft) O-SO 0.00 h 0 W/m 17.3 C 19.6 C 4.1 km/h (1 Bft)
12.08.2007 22:00 18.9 C 88 % 1010.2 hPa 0.0 l/m 0.5 km/h (0 Bft) O-SO 0.00 h 0 W/m 16.9 C 18.9 C 1.5 km/h (1 Bft)
12.08.2007 23:00 17.8 C 93 % 1010.3 hPa 0.0 l/m 1.1 km/h (1 Bft) O-SO 0.00 h 0 W/m 16.6 C 17.8 C 2.0 km/h (1 Bft)
Min-Datum _ 09.08.07 06.08.07 06.08.07 - 06.08.07 - - - 10.08.07 09.08.07 06.08.07
_ Min-Zeit 04:15 15:46 16:45 - 00:00 - - - 00:01 04:15 00:01
Minimum _ 10.9 C 39 % 1008.4 hPa - 0.0 km/h (0 Bft) - - - 9.7 C 10.9 C 0.0 km/h (0 Bft)
Max-Datum _ 06.08.07 08.08.07 10.08.07 08.08.07 08.08.07 - 06.08.07 11.08.07 06.08.07 06.08.07 08.08.07
_ Max-Zeit 15:23 18:33 21:30 20:09 04:02 - 07:39 14:10 18:34 15:23 03:43
Maximum _ 31.1 C 100 % 1015.1 hPa 12.0 l/m 26.8 km/h
W-NW (4 Bft)
- 0.02 h 970 W/m 19.7 C 31.1 C 38.2 km/h
W (5 Bft)
Durchschnitt _ 16.7 C 88 % 1012.1 hPa #91.0 l/m 2.6 km/h (1 Bft) W #22:49 h 204 W/m 14.5 C 16.7 C 4.9 km/h (1 Bft)
© Kaiko 2007